Pagri, China
Current Conditions -  °F | °C
As of 4:20 PM on Tuesday 21 Oct 2014 (Local Time) from VQPR Reporting Station
Scattered Clouds Scattered Clouds  
Wind Chill: 72°   Ceiling: Unl
Heat Index: 72°   Visibility: 6mi
Dew Point: 28°   Wind: 15mph
Humidity: 20%   Direction: 140°SE
Pressure: 30.18"   Gusts: NA
Location:  27.73°N, 89.08°E
Report Text: VQPR 210820Z 14013KT 9999 SCT030 22/M02 Q1022 NOSIG
Loading
Personal Weather Stations






























Interactive Weather Map
Tropical Storm Tracking
New forecast layout! Learn more

10-Day Weather Forecast

Advertisements
Track Severe Weather on mobile